Flight Track Log - Related Links

Times and Time Zones

All times are in EDT time to prevent confusion due to time zone crossing. See the UAL3744 flight status page for this flight to view local times or setup timezone preferences in your user account.

Time Position Orientation Groundspeed Altitude Reporting Facility
EDT Latitude Longitude Course Direction KTS MPH feet Rate Location/Type
Fri 08:31:19 AM 38.9333 -77.5333 287° West 197 227 1,900  Level Potomac TRACON
Fri 08:32:19 AM 38.8833 -77.6167 232° Southwest 256 295 4,500 2,474 Climbing Potomac TRACON
Fri 08:33:13 AM 38.8500 -77.6667 229° Southwest 256 295 6,600 2,444 Climbing Potomac TRACON
Fri 08:34:07 AM 38.8503 -77.7533 270° West 262 302 8,900 2,143 Climbing Washington Center
Fri 08:35:05 AM 38.8508 -77.8361 271° West 268 308 10,600 1,765 Climbing Washington Center
Fri 08:36:00 AM 38.8056 -78.0127 287° West  Level FlightAware Approximate
Fri 08:36:06 AM 38.8506 -77.9561 270° West 288 331 12,400  Level Washington Center
Fri 08:37:06 AM 38.8528 -78.0547 272° West 293 337 15,600 2,430 Climbing Washington Center
Fri 08:38:07 AM 38.8528 -78.1586 270° West 288 331 17,300 1,210 Climbing Washington Center
Fri 08:39:05 AM 38.8525 -78.2600 270° West 288 331 18,000 403 Climbing Washington Center
Fri 08:40:06 AM 38.8522 -78.3611 270° West 288 331 18,100 885 Climbing Washington Center
Fri 08:41:07 AM 38.8519 -78.4653 270° West 288 331 19,800 958 Climbing Washington Center
Fri 08:42:05 AM 38.8514 -78.5772 270° West 300 345 20,000 712 Climbing Washington Center
Fri 08:43:05 AM 38.8481 -78.7050 268° West 324 373 21,200 1,339 Climbing Washington Center
Fri 08:44:06 AM 38.8469 -78.8303 269° West 348 400 22,700 1,339 Climbing Washington Center
Fri 08:45:06 AM 38.8433 -78.9581 268° West 353 406 23,900 1,140 Climbing Washington Center
Fri 08:46:07 AM 38.8397 -79.0883 268° West 365 420 25,000 942 Climbing Washington Center
Fri 08:47:07 AM 38.8344 -79.1947 266° West 365 420 25,800 1,000 Climbing Washington Center
Fri 08:48:07 AM 38.8317 -79.3492 269° West 366 421 27,000 1,068 Climbing Washington Center
Fri 08:49:05 AM 38.8275 -79.4875 268° West 366 421 27,900 807 Climbing Washington Center
Fri 08:50:06 AM 38.8272 -79.6156 270° West 383 441 28,600 984 Climbing Washington Center
Fri 08:51:07 AM 38.8244 -79.7644 269° West 383 441 29,900 1,091 Climbing Washington Center
Fri 08:52:07 AM 38.8239 -79.8950 270° West 383 441 30,800 1,017 Climbing Washington Center
Fri 08:53:05 AM 38.8192 -80.0256 267° West 383 441 31,900 915 Climbing Washington Center
Fri 08:54:05 AM 38.7933 -80.1569 256° West 378 435 32,600 846 Climbing Washington Center
Fri 08:54:23 AM 38.7850 -80.1803 245° Southwest 373 429 33,000 300 Climbing Indianapolis Center
Fri 08:55:25 AM 38.7544 -80.3094 253° West 377 434 33,000 387 Level Indianapolis Center
Fri 08:56:27 AM 38.7181 -80.4414 251° West 389 448 33,800 488 Climbing Indianapolis Center
Fri 08:57:28 AM 38.6839 -80.5717 251° West 386 444 34,000 98 Climbing Indianapolis Center
Fri 08:58:30 AM 38.6467 -80.7064 251° West 397 457 34,000  Level Indianapolis Center
Fri 08:59:32 AM 38.6089 -80.8431 251° West 405 466 34,000  Level Indianapolis Center
Fri 09:00:33 AM 38.5650 -81.0033 251° West 397 457 34,000  Level Indianapolis Center
Fri 09:01:35 AM 38.5286 -81.1367 251° West 395 455 34,000  Level Indianapolis Center
Fri 09:02:37 AM 38.4911 -81.2686 250° West 392 451 34,000  Level Indianapolis Center
Fri 09:03:38 AM 38.4533 -81.4019 250° West 394 453 34,000  Level Indianapolis Center
Fri 09:04:40 AM 38.4156 -81.5378 250° West 401 461 34,000  Level Indianapolis Center
Fri 09:05:42 AM 38.3778 -81.6719 250° West 399 459 34,000  Level Indianapolis Center
Fri 09:06:43 AM 38.3392 -81.8056 250° West 399 459 34,000  Level Indianapolis Center
Fri 09:07:45 AM 38.3022 -81.9372 250° West 395 455 34,000  Level Indianapolis Center
Fri 09:08:47 AM 38.2661 -82.0706 251° West 396 456 34,000  Level Indianapolis Center
Fri 09:09:49 AM 38.2275 -82.2011 249° West 394 453 34,000  Level Indianapolis Center
Fri 09:10:51 AM 38.1831 -82.3603 250° West 397 457 34,000  Level Indianapolis Center
Fri 09:11:52 AM 38.1458 -82.4928 250° West 397 457 34,000  Level Indianapolis Center
Fri 09:12:54 AM 38.1086 -82.6203 250° West 397 457 34,000  Level Indianapolis Center
Fri 09:13:56 AM 38.0706 -82.7528 250° West 398 458 34,000  Level Indianapolis Center
Fri 09:14:58 AM 38.0322 -82.8850 250° West 400 460 34,000  Level Indianapolis Center
Fri 09:16:00 AM 37.9875 -83.0400 250° West 399 459 34,000  Level Indianapolis Center
Fri 09:17:02 AM 37.9489 -83.1736 250° West 403 464 34,000  Level Indianapolis Center
Fri 09:18:04 AM 37.9092 -83.3064 249° West 403 464 34,000  Level Indianapolis Center
Fri 09:19:06 AM 37.8700 -83.4400 250° West 405 466 34,000  Level Indianapolis Center
Fri 09:20:08 AM 37.8303 -83.5722 249° West 403 464 34,000  Level Indianapolis Center
Fri 09:21:10 AM 37.7858 -83.7242 250° West 396 456 34,000  Level Indianapolis Center
Fri 09:22:11 AM 37.7469 -83.8517 249° West 390 449 34,000  Level Indianapolis Center
Fri 09:23:13 AM 37.7081 -83.9797 249° West 389 448 34,000  Level Indianapolis Center
Fri 09:24:15 AM 37.6681 -84.1103 249° West 397 457 34,000  Level Indianapolis Center
Fri 09:25:17 AM 37.6275 -84.2397 248° West 397 457 34,000  Level Indianapolis Center
Fri 09:26:19 AM 37.5819 -84.3911 249° West 395 455 34,000  Level Indianapolis Center
Fri 09:27:21 AM 37.5439 -84.5172 249° West 387 445 34,000  Level Indianapolis Center
Fri 09:28:23 AM 37.5047 -84.6414 248° West 383 441 34,000  Level Indianapolis Center
Fri 09:29:25 AM 37.4644 -84.7678 248° West 388 447 34,000  Level Indianapolis Center
Fri 09:30:27 AM 37.4250 -84.8956 249° West 391 450 34,000  Level Indianapolis Center
Fri 09:31:29 AM 37.3864 -85.0211 249° West 386 444 34,000  Level Indianapolis Center
Fri 09:32:31 AM 37.3403 -85.1628 248° West 375 432 34,000  Level Indianapolis Center
Fri 09:33:33 AM 37.3031 -85.2839 249° West 372 428 34,000  Level Indianapolis Center
Fri 09:34:35 AM 37.2642 -85.4047 248° West 374 430 34,000  Level Indianapolis Center
Fri 09:35:37 AM 37.2231 -85.5347 248° West 378 435 34,000  Level Indianapolis Center
Fri 09:36:39 AM 37.1853 -85.6550 249° West 371 427 34,000  Level Indianapolis Center
Fri 09:37:09 AM 37.1661 -85.7183 249° West 367 422 34,000  Level Memphis Center
Fri 09:38:09 AM 37.1286 -85.8325 248° West 357 411 34,000  Level Memphis Center
Fri 09:39:09 AM 37.0911 -85.9489 248° West 366 421 34,000  Level Memphis Center
Fri 09:40:09 AM 37.0517 -86.0708 248° West 371 427 34,000  Level Memphis Center
Fri 09:41:09 AM 37.0139 -86.1872 248° West 371 427 34,000  Level Memphis Center
Fri 09:42:09 AM 36.9758 -86.2981 247° West 360 414 34,000  Level Memphis Center
Fri 09:43:09 AM 36.9381 -86.4194 249° West 360 414 34,000 200 Level Memphis Center
Fri 09:44:09 AM 36.8958 -86.5358 246° West 365 420 34,400 750 Climbing Memphis Center
Fri 09:45:09 AM 36.8556 -86.6492 246° West 365 420 35,500 800 Climbing Memphis Center
Fri 09:46:09 AM 36.8189 -86.7494 245° Southwest 359 413 36,000 250 Climbing Memphis Center
Fri 09:47:09 AM 36.7783 -86.8625 246° West 359 413 36,000  Level Memphis Center
Fri 09:48:09 AM 36.7358 -86.9808 246° West 364 419 36,000  Level Memphis Center
Fri 09:49:09 AM 36.6931 -87.0992 246° West 369 425 36,000  Level Memphis Center
Fri 09:50:09 AM 36.6503 -87.2172 246° West 369 425 36,000  Level Memphis Center
Fri 09:51:09 AM 36.6075 -87.3353 246° West 374 430 36,000  Level Memphis Center
Fri 09:52:09 AM 36.5622 -87.4531 244° Southwest 374 430 36,000  Level Memphis Center
Fri 09:53:09 AM 36.5211 -87.5683 246° West 374 430 36,000  Level Memphis Center
Fri 09:54:09 AM 36.4758 -87.6886 245° Southwest 374 430 36,000  Level Memphis Center
Fri 09:55:09 AM 36.4306 -87.8086 245° Southwest 380 437 36,000  Level Memphis Center
Fri 09:56:09 AM 36.3869 -87.9261 245° Southwest 380 437 36,000  Level Memphis Center
Fri 09:57:09 AM 36.3394 -88.0564 246° West 385 443 36,000  Level Memphis Center
Fri 09:58:09 AM 36.2956 -88.1683 244° Southwest 380 437 36,000 50 Level Memphis Center
Fri 09:59:09 AM 36.2475 -88.2878 244° Southwest 375 432 36,100  Climbing Memphis Center
Fri 10:00:09 AM 36.2036 -88.4072 246° West 381 438 36,000 -50 Descending Memphis Center
Fri 10:01:09 AM 36.1575 -88.5217 244° Southwest 386 444 36,000  Level Memphis Center
Fri 10:02:09 AM 36.1114 -88.6433 245° Southwest 386 444 36,000  Level Memphis Center
Fri 10:03:09 AM 36.0650 -88.7650 245° Southwest 386 444 36,000  Level Memphis Center
Fri 10:04:09 AM 36.0164 -88.8867 244° Southwest 391 450 36,000  Level Memphis Center
Fri 10:05:09 AM 35.9656 -89.0081 243° Southwest 391 450 36,000  Level Memphis Center
Fri 10:06:09 AM 35.9189 -89.1344 246° West 391 450 36,000  Level Memphis Center
Fri 10:07:09 AM 35.8700 -89.2606 244° Southwest 403 464 36,000  Level Memphis Center
Fri 10:08:09 AM 35.8192 -89.3867 244° Southwest 403 464 36,000  Level Memphis Center
Fri 10:09:09 AM 35.7700 -89.5128 244° Southwest 403 464 36,000 50 Level Memphis Center
Fri 10:10:09 AM 35.7206 -89.6358 244° Southwest 403 464 36,100  Climbing Memphis Center
Fri 10:11:09 AM 35.6858 -89.7461 249° West 403 464 36,000 -50 Descending Memphis Center
Fri 10:12:09 AM 35.6364 -89.8667 243° Southwest 398 458 36,000  Level Memphis Center
Fri 10:13:09 AM 35.5889 -89.9894 245° Southwest 404 465 36,000  Level Memphis Center
Fri 10:14:09 AM 35.5347 -90.1222 243° Southwest 404 465 36,000  Level Memphis Center
Fri 10:15:09 AM 35.4869 -90.2447 244° Southwest 403 464 36,000  Level Memphis Center
Fri 10:16:09 AM 35.4350 -90.3647 242° Southwest 402 463 36,000  Level Memphis Center
Fri 10:17:09 AM 35.3869 -90.4894 245° Southwest 402 463 36,000  Level Memphis Center
Fri 10:18:09 AM 35.3450 -90.5886 243° Southwest 402 463 36,000  Level Memphis Center
Fri 10:19:09 AM 35.2842 -90.7336 243° Southwest 402 463 36,000  Level Memphis Center
Fri 10:20:09 AM 35.2400 -90.8553 246° West 410 472 36,000  Level Memphis Center
Fri 10:21:09 AM 35.1831 -90.9819 241° Southwest 405 466 36,000  Level Memphis Center
Fri 10:22:09 AM 35.1344 -91.1036 244° Southwest 410 472 36,000  Level Memphis Center
Fri 10:23:09 AM 35.0817 -91.2275 243° Southwest 405 466 36,000  Level Memphis Center
Fri 10:24:09 AM 35.0306 -91.3536 244° Southwest 411 473 36,000  Level Memphis Center
Fri 10:25:09 AM 34.9775 -91.4672 240° Southwest 405 466 36,000  Level Memphis Center
Fri 10:26:09 AM 34.9242 -91.5931 243° Southwest 405 466 36,000  Level Memphis Center
Fri 10:27:09 AM 34.8792 -91.7089 245° Southwest 416 479 36,000  Level Memphis Center
Fri 10:28:09 AM 34.8233 -91.8369 242° Southwest 410 472 36,000  Level Memphis Center
Fri 10:29:09 AM 34.7697 -91.9625 243° Southwest 410 472 36,000  Level Memphis Center
Fri 10:31:09 AM 34.6703 -92.2131 244° Southwest 405 466 36,000  Level Memphis Center
Fri 10:32:09 AM 34.6347 -92.3436 252° West 406 467 36,000  Level Memphis Center
Fri 10:33:09 AM 34.5994 -92.4714 251° West 406 467 36,000  Level Memphis Center
Fri 10:34:09 AM 34.5658 -92.6017 253° West 406 467 36,000  Level Memphis Center
Fri 10:35:09 AM 34.5300 -92.7344 252° West 406 467 36,000  Level Memphis Center
Fri 10:36:09 AM 34.4961 -92.8619 252° West 406 467 36,000  Level Memphis Center
Fri 10:37:09 AM 34.4600 -92.9944 252° West 411 473 36,000  Level Memphis Center
Fri 10:38:09 AM 34.4258 -93.1269 253° West 411 473 36,000  Level Memphis Center
Fri 10:39:09 AM 34.3894 -93.2567 251° West 417 480 36,000  Level Memphis Center
Fri 10:40:09 AM 34.3283 -93.3703 237° Southwest 417 480 36,000  Level Memphis Center
Fri 10:41:18 AM 34.2561 -93.4964 235° Southwest 416 479 36,000  Level Fort Worth Center
Fri 10:42:18 AM 34.1864 -93.6025 232° Southwest 411 473 36,000  Level Fort Worth Center
Fri 10:43:18 AM 34.1208 -93.7106 234° Southwest 406 467 36,000 -200 Level Fort Worth Center
Fri 10:44:18 AM 34.0511 -93.8189 232° Southwest 406 467 35,600 -950 Descending Fort Worth Center
Fri 10:45:18 AM 33.9769 -93.9322 232° Southwest 413 475 34,100 -1,550 Descending Fort Worth Center
Fri 10:46:18 AM 33.9047 -94.0425 232° Southwest 426 490 32,500 -1,500 Descending Fort Worth Center
Fri 10:47:18 AM 33.8369 -94.1578 235° Southwest 426 490 31,100 -1,500 Descending Fort Worth Center
Fri 10:48:18 AM 33.7628 -94.2753 233° Southwest 436 502 29,500 -1,500 Descending Fort Worth Center
Fri 10:49:18 AM 33.7303 -94.4014 253° West 406 467 28,100 -1,500 Descending Fort Worth Center
Fri 10:50:18 AM 33.7083 -94.5344 259° West 406 467 26,500 -1,500 Descending Fort Worth Center
Fri 10:51:18 AM 33.6864 -94.6650 259° West 406 467 25,100 -1,250 Descending Fort Worth Center
Fri 10:52:18 AM 33.6639 -94.7956 258° West 406 467 24,000 -500 Descending Fort Worth Center
Fri 10:53:18 AM 33.6436 -94.9258 259° West 406 467 24,100  Climbing Fort Worth Center
Fri 10:54:18 AM 33.6233 -95.0561 259° West 401 461 24,000 -50 Descending Fort Worth Center
Fri 10:55:18 AM 33.6028 -95.1889 260° West 401 461 24,000  Level Fort Worth Center
Fri 10:56:18 AM 33.5797 -95.3142 258° West 401 461 24,000  Level Fort Worth Center
Fri 10:57:18 AM 33.5608 -95.4317 259° West 382 440 24,000 -500 Level Fort Worth Center
Fri 10:58:18 AM 33.5378 -95.5594 258° West 382 440 23,000 -1,400 Descending Fort Worth Center
Fri 10:59:18 AM 33.5247 -95.6642 262° West 370 426 21,200 -2,000 Descending Fort Worth Center
Fri 11:00:18 AM 33.5033 -95.7892 258° West 359 413 19,000 -1,900 Descending Fort Worth Center
Fri 11:01:18 AM 33.4858 -95.8917 258° West 353 406 17,400 -1,700 Descending Fort Worth Center
Fri 11:02:18 AM 33.4664 -96.0017 258° West 325 374 15,600 -1,650 Descending Fort Worth Center
Fri 11:03:18 AM 33.4506 -96.0939 258° West 313 360 14,100 -1,600 Descending Fort Worth Center
Fri 11:04:18 AM 33.4331 -96.2061 259° West 313 360 12,400 -1,550 Descending Fort Worth Center
Fri 11:05:18 AM 33.4169 -96.2961 258° West 313 360 11,000 -700 Descending Fort Worth Center
Fri 11:06:18 AM 33.3950 -96.3983 256° West 307 353 11,000 -200 Level Fort Worth Center
Fri 11:07:18 AM 33.3494 -96.4586 228° Southwest 278 320 10,600 -1,050 Descending Fort Worth Center
Fri 11:08:18 AM 33.3019 -96.5311 232° Southwest 261 300 8,900 -1,600 Descending Fort Worth Center
Fri 11:09:18 AM 33.2900 -96.6158 260° West 256 295 7,400 -1,400 Descending Fort Worth Center
Fri 11:10:18 AM 33.2758 -96.6928 258° West 263 303 6,100 -700 Descending Fort Worth Center
Fri 11:11:18 AM 33.2639 -96.7800 261° West 256 295 6,000 -50 Descending Fort Worth Center
Fri 11:12:18 AM 33.2456 -96.8522 253° West 256 295 6,000  Level Fort Worth Center
Fri 11:13:18 AM 33.2208 -96.9367 251° West 256 295 6,000 -450 Level Fort Worth Center
Fri 11:14:18 AM 33.2042 -96.9914 250° West 220 253 5,100 -500 Descending Fort Worth Center
Fri 11:15:18 AM 33.1583 -97.0264 213° Southwest 184 212 5,000 -200 Descending Fort Worth Center
Fri 11:16:18 AM 33.1167 -97.0289 183° South 164 189 4,700 -700 Descending Fort Worth Center
Fri 11:17:18 AM 33.0686 -97.0267 178° South 164 189 3,600 -956 Descending Fort Worth Center
Fri 11:18:11 AM 33.0333 -97.0333 189° South 154 177 2,900 -850 Descending Dallas / Fort Worth TRACON
Fri 11:19:11 AM 32.9833 -97.0333 180° South 155 178 2,000 -800 Descending Dallas / Fort Worth TRACON
Fri 11:20:11 AM 32.9500 -97.0333 180° South 129 148 1,300 -700 Descending Dallas / Fort Worth TRACON
Fri 11:22:00 AM 32.8968 -97.0380 232° Southwest  Level Estimated
Fri 11:29:00 AM 32.8968 -97.0380 232° Southwest  Level Estimated

Login

Don't have an account? Register now (free) for customized features, flight alerts, and more!